Time;durP1;ratioP1;P1;durP2;ratioP2;P2;SDS_P1;SDS_P2;PMS_P1;PMS_P2;Temp;Humidity;BMP_temperature;BMP_pressure;BME280_temperature;BME280_humidity;BME280_pressure;Samples;Min_cycle;Max_cycle;Signal;HPM_P1;HPM_P2
2023/05/20 00:01:55;;;;;;;27.92;23.85;;;;;;;12.33;100.00;100527.16;5113453;28;20035;-83
2023/05/20 00:04:21;;;;;;;28.35;23.02;;;;;;;12.26;100.00;100523.94;5113626;28;20531;-83
2023/05/20 00:06:46;;;;;;;30.23;23.35;;;;;;;12.29;100.00;100528.19;5113357;28;20034;-83
2023/05/20 00:09:12;;;;;;;29.70;23.88;;;;;;;12.51;100.00;100563.00;5113131;28;20020;-83
2023/05/20 00:11:37;;;;;;;30.48;23.70;;;;;;;12.44;100.00;100551.94;5094998;28;20028;-83
2023/05/20 00:14:02;;;;;;;32.63;23.60;;;;;;;12.45;100.00;100551.03;5049666;28;20045;-83
2023/05/20 00:16:27;;;;;;;31.98;24.80;;;;;;;12.26;100.00;100528.31;5050224;28;20033;-83
2023/05/20 00:18:53;;;;;;;31.05;25.00;;;;;;;12.28;100.00;100514.28;5049875;28;20044;-83
2023/05/20 00:21:18;;;;;;;33.20;24.40;;;;;;;12.49;100.00;100552.63;5050225;28;20029;-83
2023/05/20 00:23:44;;;;;;;30.55;25.10;;;;;;;12.43;100.00;100542.41;5050142;28;20048;-83
2023/05/20 00:26:09;;;;;;;32.83;24.77;;;;;;;12.44;100.00;100544.13;5049869;28;20945;-83
2023/05/20 00:28:35;;;;;;;33.10;25.67;;;;;;;12.27;100.00;100519.59;5049856;28;20047;-83
2023/05/20 00:31:00;;;;;;;32.33;24.58;;;;;;;12.30;100.00;100515.06;5049788;28;20036;-83
2023/05/20 00:33:26;;;;;;;32.38;24.65;;;;;;;12.34;100.00;100519.25;5049956;28;20080;-83
2023/05/20 00:35:51;;;;;;;34.63;26.55;;;;;;;12.50;100.00;100553.47;5049614;28;20025;-83
2023/05/20 00:38:16;;;;;;;32.35;25.60;;;;;;;12.38;100.00;100552.19;5049805;28;20036;-83
2023/05/20 00:40:42;;;;;;;35.47;25.98;;;;;;;12.40;100.00;100546.91;5049948;28;20033;-83
2023/05/20 00:43:07;;;;;;;34.70;25.83;;;;;;;12.34;100.00;100534.94;5049523;28;20395;-83
2023/05/20 00:45:32;;;;;;;34.28;27.15;;;;;;;12.21;100.00;100533.72;5094874;28;20502;-83
2023/05/20 00:47:58;;;;;;;35.65;26.98;;;;;;;12.35;100.00;100564.53;5112567;28;20092;-83
2023/05/20 00:50:23;;;;;;;35.65;26.30;;;;;;;12.27;100.00;100538.72;5094422;28;20026;-83
2023/05/20 00:52:50;;;;;;;34.63;28.30;;;;;;;12.11;100.00;100516.72;5112703;28;20063;-83
2023/05/20 00:55:15;;;;;;;36.58;27.08;;;;;;;12.35;100.00;100546.25;5112543;28;20106;-83
2023/05/20 00:57:41;;;;;;;34.08;27.55;;;;;;;12.31;100.00;100529.00;5112562;28;20485;-83
2023/05/20 01:00:08;;;;;;;32.70;26.80;;;;;;;12.37;100.00;100542.66;5112621;28;20023;-83
2023/05/20 01:02:33;;;;;;;34.00;26.60;;;;;;;12.45;100.00;100552.81;5094383;28;20108;-83
2023/05/20 01:04:59;;;;;;;35.65;27.75;;;;;;;12.35;100.00;100531.44;5112547;28;20483;-83
2023/05/20 01:07:24;;;;;;;36.10;27.33;;;;;;;12.29;100.00;100525.56;5112558;28;20378;-83
2023/05/20 01:09:51;;;;;;;37.75;28.30;;;;;;;12.35;100.00;100547.09;5112419;28;20035;-83
2023/05/20 01:12:19;;;;;;;35.75;28.58;;;;;;;12.45;100.00;100551.03;5112141;28;20023;-83
2023/05/20 01:14:55;;;;;;;42.38;29.85;;;;;;;12.11;100.00;100491.44;5112332;28;20052;-83
2023/05/20 01:17:25;;;;;;;40.03;30.85;;;;;;;12.05;100.00;100511.72;5112552;28;20031;-83
2023/05/20 01:19:53;;;;;;;39.17;30.83;;;;;;;12.06;100.00;100488.19;5112414;28;20039;-83
2023/05/20 01:22:18;;;;;;;35.58;28.40;;;;;;;12.40;100.00;100528.63;5112408;28;20016;-83
2023/05/20 01:24:48;;;;;;;40.00;31.73;;;;;;;12.28;100.00;100509.06;5093965;28;20035;-83
2023/05/20 01:27:14;;;;;;;43.50;31.13;;;;;;;12.33;100.00;100545.44;5112284;28;20027;-84
2023/05/20 01:29:41;;;;;;;36.75;30.25;;;;;;;12.28;100.00;100548.25;5094279;28;20394;-83
2023/05/20 01:32:10;;;;;;;43.78;32.65;;;;;;;12.04;100.00;100516.09;5093877;28;20031;-83
2023/05/20 01:34:37;;;;;;;37.88;31.30;;;;;;;12.13;100.00;100534.00;5094033;28;20036;-83
2023/05/20 01:37:05;;;;;;;42.65;32.95;;;;;;;12.20;100.00;100524.19;5093630;28;20019;-83
2023/05/20 01:39:35;;;;;;;43.20;32.90;;;;;;;11.99;100.00;100500.59;5112099;28;20552;-83
2023/05/20 01:42:02;;;;;;;43.35;33.28;;;;;;;12.12;100.00;100515.81;5112074;28;20106;-83
2023/05/20 01:44:27;;;;;;;47.78;34.47;;;;;;;12.01;100.00;100497.97;5093927;28;20031;-83
2023/05/20 01:46:52;;;;;;;44.78;33.25;;;;;;;12.18;100.00;100516.41;5112087;28;20027;-83
2023/05/20 01:49:18;;;;;;;45.80;34.85;;;;;;;12.36;100.00;100530.50;5111842;28;20031;-83
2023/05/20 01:51:43;;;;;;;46.35;35.10;;;;;;;12.22;100.00;100514.53;5111809;28;20479;-83
2023/05/20 01:54:08;;;;;;;43.25;33.45;;;;;;;12.34;100.00;100521.88;5093563;28;20024;-83
2023/05/20 01:56:34;;;;;;;41.42;32.80;;;;;;;12.43;100.00;100515.41;5093844;28;20073;-83
2023/05/20 01:58:59;;;;;;;46.63;34.85;;;;;;;12.30;100.00;100488.94;5111746;28;20059;-84
2023/05/20 02:01:24;;;;;;;50.35;35.88;;;;;;;12.31;100.00;100508.94;5093667;28;20118;-83
2023/05/20 02:03:50;;;;;;;44.03;32.50;;;;;;;12.28;100.00;100516.06;5112176;28;20035;-83
2023/05/20 02:06:15;;;;;;;47.75;36.22;;;;;;;12.14;100.00;100488.72;5111641;28;20058;-83
2023/05/20 02:08:40;;;;;;;47.42;35.30;;;;;;;12.17;100.00;100538.19;5111653;28;20049;-83
2023/05/20 02:11:06;;;;;;;47.05;35.10;;;;;;;12.20;100.00;100534.63;5111766;28;20043;-83
2023/05/20 02:13:31;;;;;;;51.00;36.50;;;;;;;11.98;100.00;100503.28;5112032;28;20043;-83
2023/05/20 02:15:56;;;;;;;47.13;37.28;;;;;;;12.26;100.00;100549.19;5111836;28;20031;-83
2023/05/20 02:18:25;;;;;;;47.67;35.63;;;;;;;12.20;100.00;100552.91;5111679;28;20027;-83
2023/05/20 02:20:50;;;;;;;45.75;36.50;;;;;;;12.11;100.00;100530.63;5112077;28;20035;-83
2023/05/20 02:23:16;;;;;;;47.88;36.47;;;;;;;12.18;100.00;100542.53;5115442;28;20027;-83
2023/05/20 02:25:42;;;;;;;44.63;36.70;;;;;;;11.95;100.00;100491.19;5115867;28;20031;-83
2023/05/20 02:28:09;;;;;;;49.25;37.50;;;;;;;12.05;100.00;100498.66;5115066;28;20467;-83
2023/05/20 02:30:38;;;;;;;47.38;35.20;;;;;;;12.08;100.00;100517.69;5115400;28;20080;-83
2023/05/20 02:33:03;;;;;;;44.97;35.72;;;;;;;12.30;100.00;100548.16;5115085;28;20028;-83
2023/05/20 02:35:28;;;;;;;48.20;36.47;;;;;;;11.94;100.00;100479.06;5115222;28;20031;-83
2023/05/20 02:37:54;;;;;;;46.55;37.38;;;;;;;12.15;100.00;100516.53;5115668;28;20034;-83
2023/05/20 02:40:19;;;;;;;47.75;37.03;;;;;;;12.11;100.00;100508.88;5115223;28;20097;-83
2023/05/20 02:42:45;;;;;;;49.88;39.03;;;;;;;12.23;100.00;100537.97;5115362;28;20100;-83
2023/05/20 02:45:11;;;;;;;45.30;35.40;;;;;;;12.06;100.00;100522.13;5096718;28;20027;-84
2023/05/20 02:47:36;;;;;;;49.22;36.95;;;;;;;12.14;100.00;100535.72;5115139;28;20027;-84
2023/05/20 02:50:02;;;;;;;44.65;33.72;;;;;;;12.20;100.00;100556.38;5114705;28;20475;-83
2023/05/20 02:52:27;;;;;;;45.22;34.97;;;;;;;12.09;100.00;100547.25;5115108;28;20033;-83
2023/05/20 02:54:53;;;;;;;40.78;34.53;;;;;;;12.07;100.00;100546.47;5115051;28;20031;-83
2023/05/20 02:57:18;;;;;;;43.25;29.77;;;;;;;11.82;100.00;100502.13;5114779;28;20028;-83
2023/05/20 02:59:43;;;;;;;41.92;30.75;;;;;;;11.92;100.00;100516.56;5096553;28;20027;-83
2023/05/20 03:02:08;;;;;;;39.47;29.50;;;;;;;11.68;100.00;100473.97;5114551;28;20457;-84
2023/05/20 03:04:37;;;;;;;40.22;29.60;;;;;;;11.94;100.00;100536.50;5114675;28;20364;-83
2023/05/20 03:07:06;;;;;;;41.53;30.15;;;;;;;12.02;100.00;100545.81;5114562;28;20023;-83
2023/05/20 03:09:32;;;;;;;39.05;31.63;;;;;;;11.86;100.00;100514.19;5114988;28;20031;-83
2023/05/20 03:11:57;;;;;;;40.17;30.15;;;;;;;11.88;100.00;100499.31;5114651;28;20024;-83
2023/05/20 03:14:22;;;;;;;37.40;28.83;;;;;;;11.85;100.00;100494.22;5114170;28;20051;-83
2023/05/20 03:16:48;;;;;;;36.30;28.70;;;;;;;11.95;100.00;100503.41;5114434;28;20463;-83
2023/05/20 03:19:13;;;;;;;37.85;29.48;;;;;;;12.22;100.00;100544.13;5114152;28;20035;-83
2023/05/20 03:21:38;;;;;;;36.67;29.02;;;;;;;11.99;100.00;100498.00;5114638;28;20058;-83
2023/05/20 03:24:04;;;;;;;35.63;27.15;;;;;;;11.98;100.00;100495.47;5114284;28;20051;-83
2023/05/20 03:26:32;;;;;;;35.30;28.23;;;;;;;12.17;100.00;100532.97;5096116;28;20073;-83
2023/05/20 03:28:57;;;;;;;39.67;27.88;;;;;;;12.04;100.00;100512.63;5114069;28;20027;-83
2023/05/20 03:31:22;;;;;;;37.65;27.58;;;;;;;11.96;100.00;100508.53;5113944;28;20023;-83
2023/05/20 03:33:48;;;;;;;38.70;28.00;;;;;;;11.95;100.00;100516.44;5112933;28;20435;-83
2023/05/20 03:36:13;;;;;;;32.28;25.42;;;;;;;12.18;100.00;100539.09;5113932;28;20094;-83
2023/05/20 03:38:38;;;;;;;36.58;25.55;;;;;;;12.18;100.00;100541.69;5114163;28;20055;-83
2023/05/20 03:41:04;;;;;;;33.85;27.50;;;;;;;12.09;100.00;100528.97;5114194;28;20024;-83
2023/05/20 03:43:29;;;;;;;29.65;24.33;;;;;;;12.18;100.00;100541.69;5095713;28;20356;-83
2023/05/20 03:45:55;;;;;;;30.30;23.42;;;;;;;12.16;100.00;100553.94;5114171;28;20031;-83
2023/05/20 03:48:20;;;;;;;30.15;23.15;;;;;;;12.11;100.00;100529.78;5113467;28;20024;-83
2023/05/20 03:50:46;;;;;;;30.17;24.45;;;;;;;11.98;100.00;100504.13;5113971;28;20447;-83
2023/05/20 03:53:11;;;;;;;28.20;23.10;;;;;;;12.07;100.00;100513.38;5113704;28;20027;-83
2023/05/20 03:55:38;;;;;;;30.80;24.48;;;;;;;12.17;100.00;100540.81;5095614;28;20475;-83
2023/05/20 03:58:03;;;;;;;29.35;24.02;;;;;;;12.35;100.00;100559.31;5113738;28;20032;-83
2023/05/20 04:00:30;;;;;;;28.98;23.02;;;;;;;12.07;100.00;100518.59;5113787;28;20020;-83
2023/05/20 04:02:55;;;;;;;27.55;21.25;;;;;;;11.96;100.00;100520.75;5113604;28;20030;-83
2023/05/20 04:05:23;;;;;;;30.38;22.45;;;;;;;12.19;100.00;100538.16;5113502;28;20375;-83
2023/05/20 04:07:48;;;;;;;29.35;23.70;;;;;;;12.18;100.00;100533.84;5113586;28;20481;-83
2023/05/20 04:10:13;;;;;;;30.77;22.17;;;;;;;12.33;100.00;100548.91;5113352;28;20108;-83
2023/05/20 04:12:40;;;;;;;29.55;23.23;;;;;;;12.17;100.00;100532.97;5113723;28;20023;-84
2023/05/20 04:15:06;;;;;;;30.33;21.52;;;;;;;12.16;100.00;100538.28;5113028;28;20048;-83
2023/05/20 04:17:31;;;;;;;28.50;21.13;;;;;;;12.16;100.00;100526.06;5095022;28;20031;-83
2023/05/20 04:19:58;;;;;;;28.23;22.85;;;;;;;12.25;100.00;100543.13;5113102;28;20528;-83
2023/05/20 04:22:24;;;;;;;30.80;23.70;;;;;;;12.16;100.00;100525.22;5094572;28;20032;-83
2023/05/20 04:24:50;;;;;;;27.08;20.95;;;;;;;12.34;100.00;100558.44;5113578;28;20127;-83
2023/05/20 04:27:15;;;;;;;31.50;21.58;;;;;;;12.39;100.00;100553.06;5094655;28;20107;-83
2023/05/20 04:29:44;;;;;;;28.48;21.67;;;;;;;12.25;100.00;100550.97;5113208;28;20092;-83
2023/05/20 04:32:11;;;;;;;26.85;21.95;;;;;;;12.31;100.00;100549.91;5112782;28;20027;-83
2023/05/20 04:34:37;;;;;;;27.85;20.63;;;;;;;12.09;100.00;100511.53;5112938;28;20493;-83
2023/05/20 04:37:03;;;;;;;26.77;20.83;;;;;;;12.20;100.00;100534.63;5113192;28;20035;-83
2023/05/20 04:39:28;;;;;;;26.70;20.52;;;;;;;12.23;100.00;100558.88;5112769;28;20119;-83
2023/05/20 04:41:54;;;;;;;27.25;20.30;;;;;;;12.11;100.00;100532.38;5112994;28;20023;-83
2023/05/20 04:44:19;;;;;;;27.42;20.98;;;;;;;12.39;100.00;100569.59;5094176;28;20371;-83
2023/05/20 04:46:45;;;;;;;27.90;21.17;;;;;;;12.34;100.00;100568.03;5094537;28;20480;-83
2023/05/20 04:49:10;;;;;;;26.70;20.58;;;;;;;12.38;100.00;100570.47;5094376;28;20031;-83
2023/05/20 04:51:36;;;;;;;29.58;23.27;;;;;;;12.17;100.00;100532.13;5112828;28;20020;-83
2023/05/20 04:54:01;;;;;;;26.67;22.27;;;;;;;12.23;100.00;100543.19;5094538;28;20024;-83
2023/05/20 04:56:26;;;;;;;32.10;23.63;;;;;;;12.33;100.00;100538.47;5112450;28;20038;-83
2023/05/20 04:58:52;;;;;;;38.85;21.65;;;;;;;12.46;100.00;100557.09;5112659;28;20545;-83
2023/05/20 05:01:17;;;;;;;28.95;22.15;;;;;;;12.28;100.00;100516.06;5112237;28;20024;-83
2023/05/20 05:03:43;;;;;;;29.27;21.70;;;;;;;12.50;100.00;100566.53;5112447;28;20420;-83
2023/05/20 05:06:08;;;;;;;30.85;22.17;;;;;;;12.37;100.00;100524.38;5112784;28;20048;-83
2023/05/20 05:08:33;;;;;;;27.23;21.48;;;;;;;12.68;100.00;100572.78;5112431;28;20032;-83
2023/05/20 05:10:59;;;;;;;29.70;22.45;;;;;;;12.65;100.00;100555.47;5112588;28;20031;-83
2023/05/20 05:13:24;;;;;;;28.05;22.65;;;;;;;12.53;100.00;100555.13;5093846;28;20086;-83
2023/05/20 05:16:00;;;;;;;29.02;22.73;;;;;;;12.57;100.00;100564.53;5112450;28;20043;-83
2023/05/20 05:18:25;;;;;;;30.35;23.50;;;;;;;12.57;100.00;100549.69;5112092;28;20475;-83
2023/05/20 05:21:06;;;;;;;32.00;24.55;;;;;;;12.63;100.00;100559.88;5112525;28;20152;-83
2023/05/20 05:23:32;;;;;;;31.40;23.45;;;;;;;12.38;100.00;100530.44;5112238;28;20038;-83
2023/05/20 05:25:57;;;;;;;32.17;24.95;;;;;;;12.36;100.00;100525.28;5112349;28;20023;-83
2023/05/20 05:28:23;;;;;;;34.85;25.65;;;;;;;12.53;100.00;100563.81;5111920;28;20024;-83
2023/05/20 05:30:49;;;;;;;34.97;25.67;;;;;;;12.52;100.00;100551.66;5112445;28;20016;-83
2023/05/20 05:33:14;;;;;;;33.58;25.20;;;;;;;12.51;100.00;100555.16;5112488;28;20084;-83
2023/05/20 05:35:41;;;;;;;34.80;26.10;;;;;;;12.56;100.00;100544.53;5112365;28;20643;-83
2023/05/20 05:38:07;;;;;;;35.97;26.80;;;;;;;12.73;100.00;100563.00;5112316;28;20031;-83
2023/05/20 05:40:33;;;;;;;33.88;26.95;;;;;;;12.55;100.00;100533.22;5111945;28;20035;-83
2023/05/20 05:42:58;;;;;;;34.05;26.25;;;;;;;12.78;100.00;100571.50;5112109;28;20035;-84
2023/05/20 05:45:23;;;;;;;31.80;25.13;;;;;;;12.70;100.00;100540.44;5111795;28;20034;-84
2023/05/20 05:47:49;;;;;;;35.70;26.23;;;;;;;12.85;100.00;100565.13;5112333;28;20463;-83
2023/05/20 05:50:14;;;;;;;39.38;27.63;;;;;;;12.83;100.00;100566.94;5112122;28;20024;-83
2023/05/20 05:52:40;;;;;;;40.67;26.02;;;;;;;12.64;100.00;100545.94;5112107;28;20023;-84
2023/05/20 05:55:06;;;;;;;36.03;27.55;;;;;;;12.38;100.00;100499.94;5093704;28;20054;-84
2023/05/20 05:57:31;;;;;;;38.88;29.52;;;;;;;12.60;100.00;100528.69;5114800;28;20043;-84
2023/05/20 05:59:57;;;;;;;37.80;27.90;;;;;;;12.76;100.00;100565.47;5116168;28;20020;-84
2023/05/20 06:02:22;;;;;;;36.22;29.13;;;;;;;12.71;100.00;100567.41;5116206;28;20482;-84
2023/05/20 06:04:47;;;;;;;38.65;28.30;;;;;;;12.49;100.00;100531.72;5116350;28;20080;-83
2023/05/20 06:07:13;;;;;;;35.47;28.05;;;;;;;12.53;100.00;100527.22;5115648;28;20030;-84
2023/05/20 06:09:38;;;;;;;36.95;26.77;;;;;;;12.81;100.00;100565.28;5115759;28;20345;-84
2023/05/20 06:12:04;;;;;;;39.20;27.98;;;;;;;12.81;100.00;100576.59;5097437;28;20553;-84
2023/05/20 06:14:30;;;;;;;39.58;27.98;;;;;;;12.70;100.00;100563.13;5115541;28;20450;-84
2023/05/20 06:16:56;;;;;;;36.22;26.83;;;;;;;12.89;100.00;100577.16;5097519;28;20411;-83
2023/05/20 06:19:21;;;;;;;39.28;28.38;;;;;;;12.90;100.00;100554.47;5115549;28;20035;-83
2023/05/20 06:21:46;;;;;;;36.03;27.05;;;;;;;13.06;100.00;100565.09;5115611;28;20127;-83
2023/05/20 06:24:12;;;;;;;37.85;27.73;;;;;;;13.07;99.49;100558.97;5115597;28;20481;-84
2023/05/20 06:26:37;;;;;;;38.15;29.45;;;;;;;13.03;99.06;100550.41;5115302;28;20026;-84
2023/05/20 06:29:02;;;;;;;36.30;28.67;;;;;;;12.96;98.97;100539.34;5115474;28;20047;-84
2023/05/20 06:31:29;;;;;;;37.10;28.17;;;;;;;12.89;98.40;100537.94;5115761;28;20098;-84
2023/05/20 06:33:54;;;;;;;36.42;27.38;;;;;;;13.06;98.95;100575.56;5115594;28;20023;-84
2023/05/20 06:36:19;;;;;;;40.72;30.25;;;;;;;12.87;99.11;100559.81;5115274;28;20072;-84
2023/05/20 06:38:45;;;;;;;40.47;30.27;;;;;;;12.87;99.74;100560.66;5115296;28;20027;-84
2023/05/20 06:41:10;;;;;;;41.03;30.73;;;;;;;12.88;100.00;100571.97;5115092;28;20096;-84
2023/05/20 06:43:36;;;;;;;42.17;31.05;;;;;;;12.71;100.00;100538.66;5114886;28;20031;-84
2023/05/20 06:46:01;;;;;;;45.55;31.90;;;;;;;12.93;100.00;100551.69;5115339;28;20022;-84
2023/05/20 06:48:26;;;;;;;43.00;31.42;;;;;;;12.85;100.00;100546.81;5114924;28;20126;-84
2023/05/20 06:50:52;;;;;;;39.85;30.58;;;;;;;12.94;100.00;100566.50;5115315;28;20031;-84
2023/05/20 06:53:17;;;;;;;40.25;31.58;;;;;;;12.81;100.00;100545.25;5115044;28;20023;-84
2023/05/20 06:55:42;;;;;;;39.05;31.77;;;;;;;12.92;100.00;100561.31;5051670;28;20040;-84
2023/05/20 06:58:08;;;;;;;38.63;30.15;;;;;;;13.06;100.00;100573.81;5051786;28;20076;-84
2023/05/20 07:00:33;;;;;;;44.13;31.15;;;;;;;12.81;100.00;100549.59;5051612;28;20045;-84
2023/05/20 07:02:58;;;;;;;41.13;32.00;;;;;;;12.92;100.00;100561.31;5051714;28;20036;-84
2023/05/20 07:05:24;;;;;;;42.10;32.25;;;;;;;12.75;100.00;100532.41;5051449;28;20033;-84
2023/05/20 07:07:50;;;;;;;42.13;33.05;;;;;;;12.86;100.00;100558.97;5051397;28;20037;-84
2023/05/20 07:10:15;;;;;;;43.92;31.70;;;;;;;12.97;100.00;100576.81;5051486;28;20080;-84
2023/05/20 07:12:41;;;;;;;42.55;31.58;;;;;;;12.97;100.00;100577.66;5051422;28;20107;-84
2023/05/20 07:15:07;;;;;;;42.08;33.33;;;;;;;12.90;100.00;100550.06;5051292;28;20041;-84
2023/05/20 07:17:32;;;;;;;45.20;34.05;;;;;;;12.90;100.00;100570.16;5051218;28;20115;-84
2023/05/20 07:19:57;;;;;;;43.60;33.00;;;;;;;12.85;100.00;100564.22;5051429;28;20609;-84
2023/05/20 07:22:23;;;;;;;42.40;32.88;;;;;;;12.98;100.00;100573.28;5050995;28;20037;-84
2023/05/20 07:24:48;;;;;;;42.60;33.40;;;;;;;12.79;100.00;100530.53;5051335;28;20028;-84
2023/05/20 07:27:14;;;;;;;45.85;34.17;;;;;;;12.83;100.00;100538.16;5096554;28;20028;-84
2023/05/20 07:29:39;;;;;;;50.08;34.05;;;;;;;12.85;100.00;100541.59;5114021;28;20027;-84
2023/05/20 07:32:05;;;;;;;45.25;33.83;;;;;;;12.83;100.00;100535.56;5114300;28;20032;-84
2023/05/20 07:34:30;;;;;;;43.17;29.80;;;;;;;12.98;100.00;100586.38;5113955;28;20027;-84
2023/05/20 07:36:57;;;;;;;42.08;29.95;;;;;;;12.77;100.00;100561.97;5114144;28;20096;-84
2023/05/20 07:39:22;;;;;;;40.00;29.08;;;;;;;12.70;100.00;100569.19;5113884;28;20024;-84
2023/05/20 07:41:48;;;;;;;39.08;28.58;;;;;;;12.64;100.00;100555.50;5095629;28;20091;-84
2023/05/20 07:44:13;;;;;;;40.50;29.38;;;;;;;12.88;100.00;100583.25;5114243;28;20020;-84
2023/05/20 07:46:40;;;;;;;38.03;29.50;;;;;;;12.76;100.00;100568.09;5113908;28;20024;-84
2023/05/20 07:49:06;;;;;;;36.72;27.98;;;;;;;12.67;100.00;100524.03;5105587;28;20063;-82
2023/05/20 07:51:31;;;;;;;35.10;28.15;;;;;;;12.88;100.00;100562.34;5093141;28;20120;-81
2023/05/20 07:53:57;;;;;;;35.80;27.88;;;;;;;12.94;100.00;100558.66;5075028;28;20066;-82
2023/05/20 07:56:22;;;;;;;36.00;26.73;;;;;;;12.99;99.67;100556.69;5093032;28;20032;-81
2023/05/20 07:59:06;;;;;;;32.67;24.25;;;;;;;12.95;99.28;100550.72;5093460;28;20090;-81
2023/05/20 08:01:31;;;;;;;30.98;24.67;;;;;;;13.01;98.48;100523.47;5093088;28;20468;-82
2023/05/20 08:03:57;;;;;;;28.77;21.65;;;;;;;13.30;97.66;100563.25;5093281;28;20028;-82
2023/05/20 08:06:25;;;;;;;32.15;22.23;;;;;;;13.23;96.82;100555.69;5092642;28;20468;-82
2023/05/20 08:08:53;;;;;;;29.10;21.65;;;;;;;13.33;96.99;100548.28;5074741;28;20539;-80
2023/05/20 08:11:20;;;;;;;28.10;20.42;;;;;;;13.21;96.83;100547.00;5093246;28;20028;-83
2023/05/20 08:13:46;;;;;;;27.75;21.65;;;;;;;13.14;97.63;100542.09;5093102;28;20083;-83
2023/05/20 08:16:11;;;;;;;26.52;21.42;;;;;;;13.33;97.56;100552.66;5093129;28;20055;-83
2023/05/20 08:18:36;;;;;;;24.10;19.48;;;;;;;13.23;97.10;100537.38;5092284;28;20064;-83
2023/05/20 08:21:02;;;;;;;24.08;19.25;;;;;;;13.11;96.89;100509.09;5107285;28;20129;-83
2023/05/20 08:23:28;;;;;;;24.95;18.60;;;;;;;13.45;95.94;100552.97;5113214;28;20386;-83
2023/05/20 08:25:53;;;;;;;25.55;20.15;;;;;;;13.38;96.53;100534.97;5113333;28;20035;-83
2023/05/20 08:28:18;;;;;;;25.42;18.75;;;;;;;13.18;96.06;100507.03;5111889;28;20027;-83
2023/05/20 08:30:44;;;;;;;25.38;20.25;;;;;;;13.63;95.96;100537.38;5092332;28;20019;-82
2023/05/20 08:33:11;;;;;;;24.10;18.27;;;;;;;13.42;95.25;100499.91;5092748;28;20074;-82
2023/05/20 08:35:38;;;;;;;23.33;18.15;;;;;;;13.54;95.08;100499.38;5100312;28;20130;-82
2023/05/20 08:38:04;;;;;;;19.60;17.52;;;;;;;13.79;94.54;100537.53;5079127;28;20070;-83
2023/05/20 08:40:30;;;;;;;21.38;17.52;;;;;;;13.71;94.97;100530.84;5092381;28;20111;-83
2023/05/20 08:42:57;;;;;;;21.95;18.00;;;;;;;13.50;94.59;100500.41;5098189;28;20031;-83
2023/05/20 08:45:27;;;;;;;25.98;18.00;;;;;;;13.74;94.70;100529.88;5103469;28;20024;-86
2023/05/20 08:47:53;;;;;;;20.55;16.80;;;;;;;13.81;94.09;100520.81;5092005;28;20056;-86
2023/05/20 08:50:18;;;;;;;20.58;17.80;;;;;;;13.86;93.97;100526.69;5093379;28;20100;-86
2023/05/20 08:52:45;;;;;;;19.08;16.50;;;;;;;14.16;93.42;100527.03;5082601;28;20081;-82
2023/05/20 08:55:21;;;;;;;19.75;17.10;;;;;;;14.24;92.98;100529.25;5101936;28;20521;-84
2023/05/20 08:57:48;;;;;;;19.45;16.27;;;;;;;14.16;91.61;100481.66;5101509;28;20024;-84
2023/05/20 09:00:15;;;;;;;21.20;16.63;;;;;;;14.37;91.55;100500.72;5107280;28;20051;-84
2023/05/20 09:02:41;;;;;;;20.38;16.52;;;;;;;14.50;90.79;100507.09;5105944;28;20387;-84
2023/05/20 09:05:09;;;;;;;18.83;16.02;;;;;;;14.81;90.48;100522.13;5110985;28;20036;-84
2023/05/20 09:07:35;;;;;;;20.15;16.33;;;;;;;14.65;89.41;100479.25;5112502;28;20360;-84
2023/05/20 09:10:01;;;;;;;17.98;15.75;;;;;;;15.17;88.41;100521.22;5112785;28;20077;-84
2023/05/20 09:12:27;;;;;;;19.15;15.13;;;;;;;14.91;87.91;100533.84;5112515;28;20059;-84
2023/05/20 09:14:52;;;;;;;17.10;14.73;;;;;;;14.65;88.04;100495.84;5099889;28;20127;-84
2023/05/20 09:17:17;;;;;;;17.20;15.15;;;;;;;14.90;88.06;100508.56;5100171;28;20024;-85
2023/05/20 09:19:43;;;;;;;18.95;16.02;;;;;;;15.05;87.43;100508.72;5100754;28;20432;-85
2023/05/20 09:22:08;;;;;;;15.68;13.65;;;;;;;15.40;86.87;100520.00;5107107;28;20027;-85
2023/05/20 09:24:34;;;;;;;16.92;15.05;;;;;;;15.65;85.77;100525.66;5091569;28;20043;-84
2023/05/20 09:26:59;;;;;;;18.52;14.88;;;;;;;15.55;83.66;100492.94;5091957;28;20047;-85
2023/05/20 09:29:25;;;;;;;16.67;14.52;;;;;;;15.80;83.70;100525.75;5091703;28;20036;-85
2023/05/20 09:31:52;;;;;;;16.58;13.80;;;;;;;15.89;83.74;100530.53;5094023;28;20046;-84
2023/05/20 09:34:19;;;;;;;16.52;14.65;;;;;;;15.65;83.94;100493.31;5095983;28;20031;-84
2023/05/20 09:36:49;;;;;;;15.75;14.07;;;;;;;15.84;84.78;100527.28;5095935;28;20118;-80
2023/05/20 09:39:18;;;;;;;14.73;12.55;;;;;;;15.71;84.05;100520.06;5096076;28;20131;-81
2023/05/20 09:42:09;;;;;;;14.70;13.20;;;;;;;15.86;84.34;100515.78;5095795;28;20110;-82
2023/05/20 09:44:35;;;;;;;17.38;13.98;;;;;;;16.15;83.18;100508.06;5095676;28;20016;-81
2023/05/20 09:47:01;;;;;;;15.73;13.77;;;;;;;16.10;82.23;100470.69;5095623;28;20606;-80
2023/05/20 09:49:28;;;;;;;19.30;14.60;;;;;;;16.40;82.52;100492.59;5095727;28;20039;-80
2023/05/20 09:51:55;;;;;;;14.85;13.32;;;;;;;16.49;81.49;100478.06;5095835;28;20024;-79
2023/05/20 09:54:23;;;;;;;14.65;12.98;;;;;;;16.80;80.75;100494.72;5110455;28;20028;-80
2023/05/20 09:56:50;;;;;;;16.52;14.43;;;;;;;16.61;80.14;100490.53;5115901;28;20020;-79
2023/05/20 09:59:16;;;;;;;15.13;13.50;;;;;;;16.55;80.09;100477.72;5115971;28;20089;-80
2023/05/20 10:01:41;;;;;;;13.90;12.55;;;;;;;16.54;80.93;100467.28;5116008;28;20028;-80
2023/05/20 10:04:09;;;;;;;14.65;12.98;;;;;;;16.75;80.35;100471.31;5116102;28;20027;-79
2023/05/20 10:07:10;;;;;;;13.73;12.32;;;;;;;16.95;79.13;100476.25;5116128;28;20024;-79
2023/05/20 10:10:02;;;;;;;14.32;12.20;;;;;;;17.14;78.76;100493.56;5032556;28;20541;-79
2023/05/20 10:12:40;;;;;;;13.45;11.85;;;;;;;17.11;78.93;100486.72;5032716;28;20037;-80
2023/05/20 10:15:27;;;;;;;15.57;13.65;;;;;;;16.95;79.28;100496.47;5032692;28;20050;-79
2023/05/20 10:18:15;;;;;;;16.95;14.23;;;;;;;16.63;80.54;100490.41;5032783;28;20591;-79
2023/05/20 10:20:48;;;;;;;14.10;12.48;;;;;;;16.72;80.83;100479.34;5032653;28;20041;-80
2023/05/20 10:23:27;;;;;;;14.68;13.13;;;;;;;16.72;79.66;100484.63;5032563;28;20031;-79
2023/05/20 10:25:54;;;;;;;18.52;15.23;;;;;;;16.90;79.77;100491.47;5032476;28;20040;-80
2023/05/20 10:28:36;;;;;;;16.13;13.82;;;;;;;16.71;80.43;100462.72;5032199;28;20033;-79
2023/05/20 10:31:13;;;;;;;14.75;13.25;;;;;;;16.99;79.71;100484.81;5032321;28;20064;-79
2023/05/20 10:33:43;;;;;;;14.23;12.70;;;;;;;17.04;79.73;100477.47;5032150;28;20505;-79
2023/05/20 10:36:08;;;;;;;15.00;12.88;;;;;;;16.96;78.78;100458.66;5032378;28;20033;-79
2023/05/20 10:38:34;;;;;;;17.05;12.80;;;;;;;17.09;78.81;100480.66;5015455;28;20067;-79
2023/05/20 10:41:10;;;;;;;29.80;20.40;;;;;;;16.94;79.52;100482.47;5032119;28;20037;-79
2023/05/20 10:43:35;;;;;;;18.27;15.18;;;;;;;17.03;80.71;100459.16;5031509;28;20033;-79
2023/05/20 10:46:01;;;;;;;17.42;14.50;;;;;;;17.14;79.47;100435.66;5050345;28;20091;-79
2023/05/20 10:48:28;;;;;;;16.30;13.15;;;;;;;17.76;79.37;100464.31;5115126;28;20390;-79
2023/05/20 10:51:04;;;;;;;16.42;13.20;;;;;;;17.87;77.71;100467.97;5114967;28;20028;-78
2023/05/20 10:53:43;;;;;;;14.38;12.98;;;;;;;17.71;77.37;100461.94;5114793;28;20019;-79
2023/05/20 10:56:23;;;;;;;27.73;18.50;;;;;;;17.67;77.83;100460.44;5114740;28;20428;-79
2023/05/20 10:58:49;;;;;;;15.25;13.02;;;;;;;17.45;78.48;100445.16;5114817;28;20031;-79
2023/05/20 11:01:16;;;;;;;15.15;13.57;;;;;;;17.44;78.52;100459.22;5114980;28;20020;-79
2023/05/20 11:03:43;;;;;;;15.55;14.05;;;;;;;17.33;78.81;100436.22;5114462;28;20024;-79